Time;durP1;ratioP1;P1;durP2;ratioP2;P2;SDS_P1;SDS_P2;PMS_P1;PMS_P2;Temp;Humidity;BMP_temperature;BMP_pressure;BME280_temperature;BME280_humidity;BME280_pressure;Samples;Min_cycle;Max_cycle;Signal;HPM_P1;HPM_P2
2021/12/30 00:01:18;;;;;;;46.30;26.70;;;;;;;-144.47;100.00;61586.06;5013968;28;20092;-82
2021/12/30 00:03:45;;;;;;;47.42;26.38;;;;;;;-144.47;100.00;61586.06;5033746;28;20026;-83
2021/12/30 00:06:10;;;;;;;50.60;27.20;;;;;;;-144.47;100.00;61586.06;5031548;28;20091;-84
2021/12/30 00:08:37;;;;;;;65.78;27.25;;;;;;;-144.47;100.00;61586.06;5031676;28;20037;-83
2021/12/30 00:11:05;;;;;;;71.20;27.02;;;;;;;-144.47;100.00;61586.06;5031262;28;20045;-83
2021/12/30 00:13:31;;;;;;;55.33;28.15;;;;;;;-144.47;100.00;61586.06;5031858;28;20044;-82
2021/12/30 00:15:57;;;;;;;75.47;30.15;;;;;;;-144.47;100.00;61586.06;5031492;28;20029;-82
2021/12/30 00:18:23;;;;;;;62.10;28.02;;;;;;;-144.47;100.00;61586.06;5031498;28;20025;-82
2021/12/30 00:20:49;;;;;;;48.10;27.45;;;;;;;-144.47;100.00;61586.06;5030658;28;20041;-84
2021/12/30 00:23:14;;;;;;;52.50;27.45;;;;;;;-144.47;100.00;61586.06;5013839;28;20030;-83
2021/12/30 00:25:41;;;;;;;47.20;26.20;;;;;;;-144.47;100.00;61586.06;5013539;28;20036;-82
2021/12/30 00:28:13;;;;;;;50.60;25.83;;;;;;;-144.47;100.00;61586.06;5031160;28;20535;-82
2021/12/30 00:30:40;;;;;;;39.10;25.45;;;;;;;-144.47;100.00;61586.06;5030795;28;20079;-83
2021/12/30 00:33:06;;;;;;;45.53;27.95;;;;;;;-144.47;100.00;61586.06;5034536;28;20470;-84
2021/12/30 00:35:32;;;;;;;43.58;27.00;;;;;;;-144.47;100.00;61586.06;5031386;28;20053;-84
2021/12/30 00:37:58;;;;;;;40.53;27.55;;;;;;;-144.47;100.00;61586.06;5030421;28;20767;-82
2021/12/30 00:40:23;;;;;;;45.28;25.20;;;;;;;-144.47;100.00;61586.06;5031200;28;20033;-82
2021/12/30 00:42:49;;;;;;;57.40;24.08;;;;;;;-144.47;100.00;61586.06;5030659;28;20018;-84
2021/12/30 00:45:14;;;;;;;43.85;24.25;;;;;;;-144.47;100.00;61586.06;5030769;28;20544;-85
2021/12/30 00:47:40;;;;;;;43.88;23.92;;;;;;;-144.47;100.00;61586.06;5030785;28;20091;-82
2021/12/30 00:50:06;;;;;;;56.30;25.67;;;;;;;-144.47;100.00;61586.06;5030954;28;20033;-82
2021/12/30 00:52:31;;;;;;;58.00;25.80;;;;;;;-144.47;100.00;61586.06;5030857;28;20347;-84
2021/12/30 00:54:57;;;;;;;36.75;25.80;;;;;;;-144.47;100.00;61586.06;5030476;28;20048;-83
2021/12/30 00:57:23;;;;;;;39.80;26.85;;;;;;;-144.47;100.00;61586.06;5030809;28;20025;-82
2021/12/30 00:59:48;;;;;;;59.72;28.50;;;;;;;-144.47;100.00;61586.06;5029959;28;20367;-83
2021/12/30 01:02:14;;;;;;;41.13;26.27;;;;;;;-144.47;100.00;61586.06;5032578;28;20112;-82
2021/12/30 01:04:39;;;;;;;42.20;28.65;;;;;;;-144.47;100.00;61586.06;5032230;28;20496;-83
2021/12/30 01:07:05;;;;;;;57.10;28.65;;;;;;;-144.47;100.00;61586.06;5030364;28;20076;-82
2021/12/30 01:09:30;;;;;;;40.53;27.70;;;;;;;-144.47;100.00;61586.06;5029998;28;20053;-82
2021/12/30 01:11:57;;;;;;;45.70;26.17;;;;;;;-144.47;100.00;61586.06;5030304;28;20095;-83
2021/12/30 01:14:26;;;;;;;37.80;26.42;;;;;;;-144.47;100.00;61586.06;5026541;28;20421;-82
2021/12/30 01:16:56;;;;;;;47.72;26.48;;;;;;;-144.47;100.00;61586.06;5001401;28;20382;-83
2021/12/30 01:22:06;;;;;;;41.97;23.10;;;;;;;-144.47;100.00;61586.06;5021088;28;20118;-83
2021/12/30 01:24:31;;;;;;;43.45;24.70;;;;;;;-144.47;100.00;61586.06;5014344;28;20127;-82
2021/12/30 01:26:57;;;;;;;29.90;23.38;;;;;;;-144.47;100.00;61586.06;5030045;28;20037;-82
2021/12/30 01:29:24;;;;;;;38.00;24.40;;;;;;;-144.47;100.00;61586.06;5030607;28;20044;-83
2021/12/30 01:31:50;;;;;;;40.90;25.17;;;;;;;-144.47;100.00;61586.06;5012571;28;20037;-83
2021/12/30 01:34:16;;;;;;;34.00;24.42;;;;;;;-144.47;100.00;61586.06;5016402;28;20041;-84
2021/12/30 01:36:41;;;;;;;38.03;24.92;;;;;;;-144.47;100.00;61586.06;5032984;28;20021;-81
2021/12/30 01:39:06;;;;;;;33.58;24.63;;;;;;;-144.47;100.00;61586.06;5044402;28;20064;-82
2021/12/30 01:41:32;;;;;;;33.58;24.98;;;;;;;-144.47;100.00;61586.06;5047413;28;20029;-84
2021/12/30 01:43:58;;;;;;;46.47;24.85;;;;;;;-144.47;100.00;61586.06;5051419;28;20085;-82
2021/12/30 01:46:23;;;;;;;77.50;24.90;;;;;;;-144.47;100.00;61586.06;5053713;28;20033;-82
2021/12/30 01:48:49;;;;;;;35.20;24.27;;;;;;;-144.47;100.00;61586.06;5038636;28;20029;-84
2021/12/30 01:51:14;;;;;;;51.30;24.33;;;;;;;-144.47;100.00;61586.06;5032066;28;20104;-83
2021/12/30 01:53:41;;;;;;;66.20;24.65;;;;;;;-144.47;100.00;61586.06;5031235;28;20029;-84
2021/12/30 01:56:06;;;;;;;47.25;23.40;;;;;;;-144.47;100.00;61586.06;5010848;28;20486;-84
2021/12/30 01:58:35;;;;;;;30.25;23.73;;;;;;;-144.47;100.00;61586.06;5029109;28;20043;-84
2021/12/30 02:01:01;;;;;;;44.95;22.35;;;;;;;-144.47;100.00;61586.06;5029425;28;20473;-84
2021/12/30 02:03:27;;;;;;;41.42;23.17;;;;;;;-144.47;100.00;61586.06;5034522;28;20482;-83
2021/12/30 02:05:52;;;;;;;30.10;22.23;;;;;;;-144.47;100.00;61586.06;5032386;28;20057;-84
2021/12/30 02:08:19;;;;;;;31.83;23.13;;;;;;;-144.47;100.00;61586.06;5031110;28;20033;-82
2021/12/30 02:10:48;;;;;;;33.83;24.27;;;;;;;-144.47;100.00;61586.06;5030217;28;20041;-83
2021/12/30 02:13:16;;;;;;;32.60;23.48;;;;;;;-144.47;100.00;61586.06;5030736;28;20088;-83
2021/12/30 02:15:42;;;;;;;39.80;24.40;;;;;;;-144.47;100.00;61586.06;5030432;28;20033;-84
2021/12/30 02:18:07;;;;;;;44.72;23.23;;;;;;;-144.47;100.00;61586.06;5030558;28;20038;-83
2021/12/30 02:20:45;;;;;;;36.70;25.10;;;;;;;-144.47;100.00;61586.06;5013386;28;20055;-83
2021/12/30 02:23:13;;;;;;;32.75;23.73;;;;;;;-144.47;100.00;61586.06;5034788;28;20484;-82
2021/12/30 02:25:39;;;;;;;45.05;24.40;;;;;;;-144.47;100.00;61586.06;5034062;28;20083;-83
2021/12/30 02:28:16;;;;;;;42.85;24.60;;;;;;;-144.47;100.00;61586.06;5034040;28;20041;-83
2021/12/30 02:30:43;;;;;;;40.17;24.08;;;;;;;-144.47;100.00;61586.06;5016339;28;20091;-83
2021/12/30 02:33:09;;;;;;;32.65;23.90;;;;;;;-144.47;100.00;61586.06;5034458;28;20033;-82
2021/12/30 02:35:35;;;;;;;41.35;24.35;;;;;;;-144.47;100.00;61586.06;5018691;28;20386;-83
2021/12/30 02:38:00;;;;;;;36.10;24.40;;;;;;;-144.47;100.00;61586.06;5033897;28;20458;-83
2021/12/30 02:40:29;;;;;;;51.75;24.30;;;;;;;-144.47;100.00;61586.06;5034459;28;20041;-82
2021/12/30 02:42:54;;;;;;;35.05;24.27;;;;;;;-144.47;100.00;61586.06;5039604;28;20045;-82
2021/12/30 02:45:20;;;;;;;44.65;22.23;;;;;;;-144.47;100.00;61586.06;5048465;28;20025;-82
2021/12/30 02:47:46;;;;;;;51.45;21.10;;;;;;;-144.47;100.00;61586.06;5047621;28;20033;-82
2021/12/30 02:50:12;;;;;;;29.40;21.60;;;;;;;-144.47;100.00;61586.06;5018464;28;20037;-83
2021/12/30 02:52:38;;;;;;;40.78;23.52;;;;;;;-144.47;100.00;61586.06;5035291;28;20034;-81
2021/12/30 02:55:04;;;;;;;43.55;25.23;;;;;;;-144.47;100.00;61586.06;5034810;28;20116;-82
2021/12/30 02:57:31;;;;;;;71.70;25.35;;;;;;;-144.47;100.00;61586.06;5034774;28;20032;-83
2021/12/30 02:59:57;;;;;;;50.00;23.98;;;;;;;-144.47;100.00;61586.06;5035351;28;20037;-84
2021/12/30 03:02:22;;;;;;;49.72;25.05;;;;;;;-144.47;100.00;61586.06;5037180;28;20405;-83
2021/12/30 03:04:47;;;;;;;52.75;24.42;;;;;;;-144.47;100.00;61586.06;5037665;28;20029;-82
2021/12/30 03:07:17;;;;;;;61.67;23.90;;;;;;;-144.47;100.00;61586.06;5051790;28;20037;-83
2021/12/30 03:09:46;;;;;;;52.88;25.70;;;;;;;-144.47;100.00;61586.06;5054602;28;20183;-82
2021/12/30 03:12:12;;;;;;;37.60;22.67;;;;;;;-144.47;100.00;61586.06;5052208;28;20041;-82
2021/12/30 03:14:40;;;;;;;34.13;24.08;;;;;;;-144.47;100.00;61586.06;5050140;28;20031;-83
2021/12/30 03:17:06;;;;;;;43.80;23.95;;;;;;;-144.47;100.00;61586.06;5051152;28;20168;-82
2021/12/30 03:19:32;;;;;;;46.78;24.70;;;;;;;-144.47;100.00;61586.06;5054858;28;20047;-81
2021/12/30 03:21:58;;;;;;;39.55;24.73;;;;;;;-144.47;100.00;61586.06;5037100;28;20034;-83
2021/12/30 03:24:23;;;;;;;41.20;22.63;;;;;;;-144.47;100.00;61586.06;5054501;28;20037;-83
2021/12/30 03:26:49;;;;;;;34.30;23.17;;;;;;;-144.47;100.00;61586.06;5035518;28;20021;-83
2021/12/30 03:29:14;;;;;;;42.38;22.42;;;;;;;-144.47;100.00;61586.06;5028538;28;20042;-81
2021/12/30 03:31:40;;;;;;;39.80;24.20;;;;;;;-144.47;100.00;61586.06;5015030;28;20542;-83
2021/12/30 03:34:05;;;;;;;45.33;23.67;;;;;;;-144.47;100.00;61586.06;5015499;28;20092;-83
2021/12/30 03:36:33;;;;;;;38.20;23.73;;;;;;;-144.47;100.00;61586.06;5030604;28;20040;-82
2021/12/30 03:38:59;;;;;;;41.15;24.08;;;;;;;-144.47;100.00;61586.06;5025875;28;20038;-82
2021/12/30 03:41:27;;;;;;;49.67;25.65;;;;;;;-144.47;100.00;61586.06;5000520;28;20031;-83
2021/12/30 03:43:54;;;;;;;40.30;25.40;;;;;;;-144.47;100.00;61586.06;5021355;28;20029;-83
2021/12/30 03:46:21;;;;;;;41.47;24.98;;;;;;;-144.47;100.00;61586.06;5033897;28;20413;-81
2021/12/30 03:48:47;;;;;;;56.75;24.52;;;;;;;-144.47;100.00;61586.06;5035662;28;20032;-82
2021/12/30 03:51:21;;;;;;;41.03;24.45;;;;;;;-144.47;100.00;61586.06;5033131;28;20029;-83
2021/12/30 03:53:49;;;;;;;56.70;22.95;;;;;;;-144.47;100.00;61586.06;5032823;28;20039;-83
2021/12/30 03:56:18;;;;;;;36.50;23.73;;;;;;;-144.47;100.00;61586.06;5015150;28;20035;-82
2021/12/30 03:58:45;;;;;;;55.92;21.70;;;;;;;-144.47;100.00;61586.06;5005605;28;20053;-83
2021/12/30 04:01:14;;;;;;;39.10;22.67;;;;;;;-144.47;100.00;61586.06;5024014;28;20400;-82
2021/12/30 04:03:40;;;;;;;39.50;21.88;;;;;;;-144.47;100.00;61586.06;5022473;28;20806;-83
2021/12/30 04:06:06;;;;;;;35.95;23.88;;;;;;;-144.47;100.00;61586.06;5021882;28;20038;-83
2021/12/30 04:08:31;;;;;;;36.03;23.05;;;;;;;-144.47;100.00;61586.06;5028963;28;20075;-83
2021/12/30 04:10:57;;;;;;;37.70;22.15;;;;;;;-144.47;100.00;61586.06;5031568;28;20493;-83
2021/12/30 04:13:23;;;;;;;49.17;22.63;;;;;;;-144.47;100.00;61586.06;5026775;28;20036;-83
2021/12/30 04:15:49;;;;;;;51.40;22.63;;;;;;;-144.47;100.00;61586.06;5031381;28;20536;-83
2021/12/30 04:18:15;;;;;;;38.88;21.67;;;;;;;-144.47;100.00;61586.06;5033807;28;20033;-81
2021/12/30 04:20:42;;;;;;;38.55;21.35;;;;;;;-144.47;100.00;61586.06;5031824;28;20029;-82
2021/12/30 04:23:07;;;;;;;32.83;21.27;;;;;;;-144.47;100.00;61586.06;5031712;28;20044;-82
2021/12/30 04:25:34;;;;;;;38.55;20.98;;;;;;;-144.47;100.00;61586.06;5031707;28;20029;-81
2021/12/30 04:28:00;;;;;;;38.30;21.42;;;;;;;-144.47;100.00;61586.06;5031562;28;20033;-82
2021/12/30 04:30:26;;;;;;;39.35;21.63;;;;;;;-144.47;100.00;61586.06;5031779;28;20351;-83
2021/12/30 04:32:52;;;;;;;38.15;21.10;;;;;;;-144.47;100.00;61586.06;5030249;28;20030;-82
2021/12/30 04:35:17;;;;;;;40.28;22.50;;;;;;;-144.47;100.00;61586.06;5031780;28;20037;-83
2021/12/30 04:37:43;;;;;;;41.25;21.27;;;;;;;-144.47;100.00;61586.06;5031116;28;20101;-82
2021/12/30 04:40:10;;;;;;;37.65;20.80;;;;;;;-144.47;100.00;61586.06;5031708;28;20061;-83
2021/12/30 04:42:36;;;;;;;36.70;21.38;;;;;;;-144.47;100.00;61586.06;5031580;28;20127;-82
2021/12/30 04:45:03;;;;;;;32.38;20.85;;;;;;;-144.47;100.00;61586.06;5012894;28;20040;-82
2021/12/30 04:47:28;;;;;;;32.80;22.65;;;;;;;-144.47;100.00;61586.06;5013414;28;20060;-83
2021/12/30 04:49:57;;;;;;;34.55;22.98;;;;;;;-144.47;100.00;61586.06;5033239;28;20478;-82
2021/12/30 04:52:22;;;;;;;35.35;22.70;;;;;;;-144.47;100.00;61586.06;5031778;28;20108;-83
2021/12/30 04:54:49;;;;;;;33.70;22.98;;;;;;;-144.47;100.00;61586.06;5036370;28;20041;-83
2021/12/30 04:57:15;;;;;;;44.53;23.50;;;;;;;-144.47;100.00;61586.06;5046697;28;20517;-83
2021/12/30 04:59:40;;;;;;;52.65;22.90;;;;;;;-144.47;100.00;61586.06;5033667;28;20030;-82
2021/12/30 05:02:07;;;;;;;35.88;22.60;;;;;;;-144.47;100.00;61586.06;5032034;28;20037;-82
2021/12/30 05:04:33;;;;;;;31.85;21.80;;;;;;;-144.47;100.00;61586.06;5014174;28;20033;-82
2021/12/30 05:06:59;;;;;;;36.58;22.90;;;;;;;-144.47;100.00;61586.06;5031728;28;20098;-83
2021/12/30 05:09:24;;;;;;;56.80;23.40;;;;;;;-144.47;100.00;61586.06;5031882;28;20061;-83
2021/12/30 05:11:50;;;;;;;38.28;23.40;;;;;;;-144.47;100.00;61586.06;5031635;28;20042;-83
2021/12/30 05:14:16;;;;;;;46.80;23.05;;;;;;;-144.47;100.00;61586.06;5013719;28;20041;-83
2021/12/30 05:16:42;;;;;;;37.50;23.20;;;;;;;-144.47;100.00;61586.06;5013574;28;20417;-84
2021/12/30 05:19:08;;;;;;;125.95;25.95;;;;;;;-144.47;100.00;61586.06;5031155;28;20048;-82
2021/12/30 05:21:33;;;;;;;42.90;24.10;;;;;;;-144.47;100.00;61586.06;5031362;28;20168;-83
2021/12/30 05:23:59;;;;;;;54.70;22.70;;;;;;;-144.47;100.00;61586.06;5031277;28;20041;-83
2021/12/30 05:26:28;;;;;;;41.08;24.27;;;;;;;-144.47;100.00;61586.06;5031633;28;20287;-82
2021/12/30 05:28:58;;;;;;;35.05;23.13;;;;;;;-144.47;100.00;61586.06;5031588;28;20034;-82
2021/12/30 05:31:25;;;;;;;37.33;23.15;;;;;;;-144.47;100.00;61586.06;5034640;28;20104;-83
2021/12/30 05:33:51;;;;;;;48.83;21.13;;;;;;;-144.47;100.00;61586.06;5013161;28;20170;-83
2021/12/30 05:36:18;;;;;;;32.85;23.00;;;;;;;-144.47;100.00;61586.06;5014203;28;21455;-83
2021/12/30 05:38:43;;;;;;;44.72;24.23;;;;;;;-144.47;100.00;61586.06;5031307;28;20455;-83
2021/12/30 05:41:09;;;;;;;57.83;24.67;;;;;;;-144.47;100.00;61586.06;5022446;28;20044;-83
2021/12/30 05:43:35;;;;;;;41.55;23.67;;;;;;;-144.47;100.00;61586.06;5013092;28;20124;-83
2021/12/30 05:46:01;;;;;;;47.80;23.90;;;;;;;-144.47;100.00;61586.06;5030465;28;20045;-82
2021/12/30 05:48:26;;;;;;;51.97;24.70;;;;;;;-144.47;100.00;61586.06;5032070;28;20062;-82
2021/12/30 05:50:54;;;;;;;40.65;24.23;;;;;;;-144.47;100.00;61586.06;5016097;28;20051;-82
2021/12/30 05:53:20;;;;;;;38.47;23.05;;;;;;;-144.47;100.00;61586.06;5039222;28;20093;-83
2021/12/30 05:55:46;;;;;;;43.05;23.73;;;;;;;-144.47;100.00;61586.06;5037536;28;20087;-83
2021/12/30 05:58:12;;;;;;;35.60;22.70;;;;;;;-144.47;100.00;61586.06;5048434;28;20074;-82
2021/12/30 06:00:37;;;;;;;40.28;23.73;;;;;;;-144.47;100.00;61586.06;5043562;28;20056;-83
2021/12/30 06:03:03;;;;;;;41.97;23.63;;;;;;;-144.47;100.00;61586.06;5024616;28;20037;-84
2021/12/30 06:05:28;;;;;;;40.85;22.27;;;;;;;-144.47;100.00;61586.06;5022764;28;20038;-83
2021/12/30 06:07:54;;;;;;;40.63;23.48;;;;;;;-144.47;100.00;61586.06;5026874;28;20052;-84
2021/12/30 06:10:19;;;;;;;38.90;22.88;;;;;;;-144.47;100.00;61586.06;5002681;28;20080;-83
2021/12/30 06:12:46;;;;;;;34.58;22.17;;;;;;;-144.47;100.00;61586.06;5024943;28;20053;-82
2021/12/30 06:15:12;;;;;;;35.08;22.60;;;;;;;-144.47;100.00;61586.06;5024654;28;20500;-83
2021/12/30 06:17:38;;;;;;;45.03;21.55;;;;;;;-144.47;100.00;61586.06;5023900;28;20485;-82
2021/12/30 06:20:10;;;;;;;26.70;18.95;;;;;;;-144.47;100.00;61586.06;5025279;28;20065;-81
2021/12/30 06:22:35;;;;;;;52.40;21.38;;;;;;;-144.47;100.00;61586.06;5024134;28;20029;-82
2021/12/30 06:25:03;;;;;;;31.83;20.05;;;;;;;-144.47;100.00;61586.06;5025038;28;20083;-82
2021/12/30 06:27:28;;;;;;;34.40;21.98;;;;;;;-144.47;100.00;61586.06;5027664;28;20040;-83
2021/12/30 06:29:53;;;;;;;62.78;20.52;;;;;;;-144.47;100.00;61586.06;5033933;28;20025;-83
2021/12/30 06:32:19;;;;;;;29.85;21.08;;;;;;;-144.47;100.00;61586.06;5034149;28;20065;-82
2021/12/30 06:34:44;;;;;;;40.35;20.08;;;;;;;-144.47;100.00;61586.06;5033744;28;20041;-84
2021/12/30 06:37:11;;;;;;;46.92;21.50;;;;;;;-144.47;100.00;61586.06;5033693;28;20389;-82
2021/12/30 06:39:37;;;;;;;52.50;21.35;;;;;;;-144.47;100.00;61586.06;5033280;28;20043;-84
2021/12/30 06:42:03;;;;;;;39.80;21.50;;;;;;;-144.47;100.00;61586.06;5033351;28;20137;-81
2021/12/30 06:44:29;;;;;;;43.72;22.23;;;;;;;-144.47;100.00;61586.06;5033773;28;20061;-83
2021/12/30 06:46:58;;;;;;;57.40;22.58;;;;;;;-144.47;100.00;61586.06;5033706;28;20580;-83
2021/12/30 06:49:24;;;;;;;79.57;22.92;;;;;;;-144.47;100.00;61586.06;5029749;28;20037;-83
2021/12/30 06:51:50;;;;;;;37.70;22.75;;;;;;;-144.47;100.00;61586.06;5031375;28;20429;-83
2021/12/30 06:54:16;;;;;;;70.80;20.95;;;;;;;-144.47;100.00;61586.06;5023218;28;20034;-82
2021/12/30 06:56:41;;;;;;;32.78;20.58;;;;;;;-144.47;100.00;61586.06;5033010;28;20030;-83
2021/12/30 06:59:07;;;;;;;35.10;21.02;;;;;;;-144.47;100.00;61586.06;5038384;28;20029;-83
2021/12/30 07:01:32;;;;;;;79.68;21.27;;;;;;;-144.47;100.00;61586.06;5036593;28;20037;-82
2021/12/30 07:03:58;;;;;;;64.13;20.85;;;;;;;-144.47;100.00;61586.06;5033488;28;20549;-83
2021/12/30 07:06:24;;;;;;;70.75;21.77;;;;;;;-144.47;100.00;61586.06;5033884;28;20029;-83
2021/12/30 07:08:49;;;;;;;30.23;21.25;;;;;;;-144.47;100.00;61586.06;5031994;28;20041;-81
2021/12/30 07:11:15;;;;;;;56.33;22.23;;;;;;;-144.47;100.00;61586.06;5032874;28;20448;-82
2021/12/30 07:13:41;;;;;;;42.45;23.25;;;;;;;-144.47;100.00;61586.06;5033466;28;20056;-82
2021/12/30 07:16:06;;;;;;;41.55;22.50;;;;;;;-144.47;100.00;61586.06;5032826;28;20486;-82
2021/12/30 07:18:33;;;;;;;61.45;22.23;;;;;;;-144.47;100.00;61586.06;5033026;28;20080;-82
2021/12/30 07:20:58;;;;;;;27.35;21.17;;;;;;;-144.47;100.00;61586.06;5032676;28;20736;-82
2021/12/30 07:23:23;;;;;;;39.50;21.33;;;;;;;-144.47;100.00;61586.06;5015482;28;20538;-81
2021/12/30 07:25:49;;;;;;;45.55;21.30;;;;;;;-144.47;100.00;61586.06;5032815;28;20029;-82
2021/12/30 07:28:15;;;;;;;48.03;20.13;;;;;;;-144.47;100.00;61586.06;5032823;28;20121;-82
2021/12/30 07:30:40;;;;;;;40.55;19.38;;;;;;;-144.47;100.00;61586.06;5027500;28;20048;-80
2021/12/30 07:33:07;;;;;;;28.20;18.98;;;;;;;-144.47;100.00;61586.06;5023373;28;20393;-83
2021/12/30 07:35:35;;;;;;;36.90;19.58;;;;;;;-144.47;100.00;61586.06;5021277;28;20026;-86
2021/12/30 07:38:00;;;;;;;36.88;20.25;;;;;;;-144.47;100.00;61586.06;5036655;28;20100;-86
2021/12/30 07:40:26;;;;;;;35.40;19.88;;;;;;;-144.47;100.00;61586.06;5032667;28;20108;-85
2021/12/30 07:42:52;;;;;;;32.42;20.73;;;;;;;-144.47;100.00;61586.06;5032810;28;20030;-86
2021/12/30 07:45:17;;;;;;;57.92;19.73;;;;;;;-144.47;100.00;61586.06;5015277;28;20033;-83
2021/12/30 07:47:43;;;;;;;28.92;18.35;;;;;;;-144.47;100.00;61586.06;5014993;28;20036;-83
2021/12/30 07:50:10;;;;;;;39.10;18.70;;;;;;;-144.47;100.00;61586.06;5011357;28;20089;-80
2021/12/30 07:52:37;;;;;;;36.38;18.52;;;;;;;-144.47;100.00;61586.06;5030985;28;20371;-81
2021/12/30 07:55:08;;;;;;;39.80;20.02;;;;;;;-144.47;100.00;61586.06;5034070;28;20112;-82
2021/12/30 07:57:34;;;;;;;34.95;19.08;;;;;;;-144.47;100.00;61586.06;5034915;28;20029;-84
2021/12/30 08:00:00;;;;;;;29.23;19.55;;;;;;;-144.47;100.00;61586.06;5029420;28;20044;-83
2021/12/30 08:02:26;;;;;;;37.08;20.33;;;;;;;-144.47;100.00;61586.06;5012889;28;20478;-84
2021/12/30 08:04:52;;;;;;;30.27;19.95;;;;;;;-144.47;100.00;61586.06;5027273;28;20100;-83
2021/12/30 08:07:22;;;;;;;25.02;19.15;;;;;;;-144.47;100.00;61586.06;5031652;28;20045;-85
2021/12/30 08:09:49;;;;;;;35.10;19.35;;;;;;;-144.47;100.00;61586.06;5033468;28;20041;-85
2021/12/30 08:12:14;;;;;;;39.28;19.98;;;;;;;-144.47;100.00;61586.06;5006824;28;20050;-85
2021/12/30 08:14:41;;;;;;;39.25;19.40;;;;;;;-144.47;100.00;61586.06;5013672;28;20026;-85
2021/12/30 08:17:07;;;;;;;25.27;18.83;;;;;;;-144.47;100.00;61586.06;5013724;28;20093;-83
2021/12/30 08:19:33;;;;;;;49.53;19.08;;;;;;;-144.47;100.00;61586.06;5012201;28;20494;-82
2021/12/30 08:22:02;;;;;;;33.33;18.80;;;;;;;-144.47;100.00;61586.06;5011952;28;20045;-81
2021/12/30 08:24:29;;;;;;;27.38;20.33;;;;;;;-144.47;100.00;61586.06;5011787;28;20167;-79
2021/12/30 08:26:58;;;;;;;30.88;20.90;;;;;;;-144.47;100.00;61586.06;5000548;28;20034;-80
2021/12/30 08:29:26;;;;;;;31.50;19.50;;;;;;;-144.47;100.00;61586.06;4981428;28;20112;-82
2021/12/30 08:31:51;;;;;;;28.35;20.23;;;;;;;-144.47;100.00;61586.06;5006673;28;20026;-83
2021/12/30 08:34:18;;;;;;;24.67;19.15;;;;;;;-144.47;100.00;61586.06;5001472;28;20026;-86
2021/12/30 08:36:47;;;;;;;27.92;18.92;;;;;;;-144.47;100.00;61586.06;5016617;28;20034;-87
2021/12/30 08:39:13;;;;;;;29.10;20.40;;;;;;;-144.47;100.00;61586.06;5012322;28;20490;-82
2021/12/30 08:41:39;;;;;;;25.88;18.95;;;;;;;-144.47;100.00;61586.06;5013112;28;20041;-80
2021/12/30 08:44:09;;;;;;;26.50;20.50;;;;;;;-144.47;100.00;61586.06;5013107;28;20037;-81
2021/12/30 08:46:35;;;;;;;27.38;19.35;;;;;;;-144.47;100.00;61586.06;4999023;28;20030;-82
2021/12/30 08:49:00;;;;;;;31.27;19.55;;;;;;;-144.47;100.00;61586.06;4984034;28;20044;-85
2021/12/30 08:51:26;;;;;;;24.30;19.17;;;;;;;-144.47;100.00;61586.06;5006926;28;20021;-82
2021/12/30 08:53:52;;;;;;;35.63;19.52;;;;;;;-144.47;100.00;61586.06;4998415;28;20022;-81
2021/12/30 08:56:18;;;;;;;23.75;18.10;;;;;;;-144.47;100.00;61586.06;5005662;28;20045;-85
2021/12/30 08:58:44;;;;;;;40.20;19.75;;;;;;;-144.47;100.00;61586.06;4998510;28;20034;-84
2021/12/30 09:01:09;;;;;;;25.85;19.65;;;;;;;-144.47;100.00;61586.06;5000140;28;20041;-83
2021/12/30 09:03:35;;;;;;;30.77;19.65;;;;;;;-144.47;100.00;61586.06;5003229;28;20041;-88
2021/12/30 09:06:01;;;;;;;31.92;20.25;;;;;;;-144.47;100.00;61586.06;4994085;28;20124;-85
2021/12/30 09:08:26;;;;;;;33.88;21.13;;;;;;;-144.47;100.00;61586.06;5022915;28;20082;-86
2021/12/30 09:10:52;;;;;;;34.83;20.20;;;;;;;-144.47;100.00;61586.06;5007797;28;20041;-86
2021/12/30 09:13:22;;;;;;;53.40;22.33;;;;;;;-144.47;100.00;61586.06;5034095;28;20068;-84
2021/12/30 09:15:48;;;;;;;36.25;21.65;;;;;;;-144.47;100.00;61586.06;5021454;28;20029;-85
2021/12/30 09:18:14;;;;;;;34.40;22.30;;;;;;;-144.47;100.00;61586.06;5005616;28;20040;-86
2021/12/30 09:20:41;;;;;;;28.58;22.17;;;;;;;-144.47;100.00;61586.06;5022868;28;20039;-86
2021/12/30 09:23:09;;;;;;;40.45;22.40;;;;;;;-144.47;100.00;61586.06;5004172;28;20096;-86
2021/12/30 09:25:36;;;;;;;45.22;21.15;;;;;;;-144.47;100.00;61586.06;5019837;28;20037;-87
2021/12/30 09:28:03;;;;;;;30.58;21.20;;;;;;;-144.47;100.00;61586.06;5023640;28;20108;-87
2021/12/30 09:30:29;;;;;;;32.20;21.88;;;;;;;-144.47;100.00;61586.06;5021127;28;20026;-86
2021/12/30 09:32:58;;;;;;;28.23;20.98;;;;;;;-144.47;100.00;61586.06;5025665;28;20374;-86
2021/12/30 09:35:24;;;;;;;31.83;22.05;;;;;;;-144.47;100.00;61586.06;5034413;28;20025;-86
2021/12/30 09:37:50;;;;;;;38.38;20.70;;;;;;;-144.47;100.00;61586.06;5037138;28;20135;-86
2021/12/30 09:40:17;;;;;;;35.95;20.98;;;;;;;-144.47;100.00;61586.06;5036469;28;20033;-87
2021/12/30 09:42:47;;;;;;;36.70;21.95;;;;;;;-144.47;100.00;61586.06;5036065;28;20033;-85
2021/12/30 09:45:14;;;;;;;32.45;22.25;;;;;;;-144.47;100.00;61586.06;5021605;28;20517;-86
2021/12/30 09:47:55;;;;;;;43.53;24.27;;;;;;;-144.47;100.00;61586.06;5037736;28;20040;-87
2021/12/30 09:50:27;;;;;;;33.65;23.67;;;;;;;-144.47;100.00;61586.06;5036191;28;20024;-86
2021/12/30 09:52:55;;;;;;;37.30;24.27;;;;;;;-144.47;100.00;61586.06;5036954;28;20075;-87
2021/12/30 09:55:21;;;;;;;37.53;24.63;;;;;;;-144.47;100.00;61586.06;5017647;28;20025;-86
2021/12/30 09:57:47;;;;;;;49.47;24.65;;;;;;;-144.47;100.00;61586.06;5035204;28;20038;-87
2021/12/30 10:00:14;;;;;;;39.33;24.25;;;;;;;-144.47;100.00;61586.06;5041621;28;20049;-87
2021/12/30 10:02:41;;;;;;;39.70;24.73;;;;;;;-144.47;100.00;61586.06;5027128;28;20029;-87
2021/12/30 10:05:13;;;;;;;57.97;24.02;;;;;;;-144.47;100.00;61586.06;5046866;28;20375;-86
2021/12/30 10:07:41;;;;;;;36.83;24.65;;;;;;;-144.47;100.00;61586.06;5054492;28;20451;-86
2021/12/30 10:10:30;;;;;;;39.22;23.85;;;;;;;-144.47;100.00;61586.06;5027957;28;20037;-88
2021/12/30 10:12:57;;;;;;;62.10;24.85;;;;;;;-144.47;100.00;61586.06;5035195;28;20041;-87
2021/12/30 10:15:25;;;;;;;34.65;24.10;;;;;;;-144.47;100.00;61586.06;5035385;28;20039;-86
2021/12/30 10:17:59;;;;;;;46.88;24.45;;;;;;;-144.47;100.00;61586.06;5038335;28;20083;-85
2021/12/30 10:20:30;;;;;;;31.75;22.88;;;;;;;-144.47;100.00;61586.06;5031464;28;20539;-86
2021/12/30 10:23:07;;;;;;;35.22;22.80;;;;;;;-144.47;100.00;61586.06;5026722;28;20557;-86
2021/12/30 10:25:35;;;;;;;38.47;22.80;;;;;;;-144.47;100.00;61586.06;5027810;28;20029;-86
2021/12/30 10:28:16;;;;;;;38.75;23.27;;;;;;;-144.47;100.00;61586.06;5034494;28;20103;-86
2021/12/30 10:30:42;;;;;;;45.88;24.35;;;;;;;-144.47;100.00;61586.06;5034772;28;20110;-86
2021/12/30 10:33:12;;;;;;;38.88;24.58;;;;;;;-144.47;100.00;61586.06;5016881;28;20436;-86
2021/12/30 10:35:38;;;;;;;40.97;24.48;;;;;;;-144.47;100.00;61586.06;5016535;28;20081;-86
2021/12/30 10:38:09;;;;;;;38.53;25.45;;;;;;;-144.47;100.00;61586.06;5016550;28;20449;-87
2021/12/30 10:40:37;;;;;;;39.83;25.92;;;;;;;-144.47;100.00;61586.06;5034437;28;20108;-87
2021/12/30 10:43:13;;;;;;;38.58;26.23;;;;;;;-144.47;100.00;61586.06;5034433;28;20029;-84
2021/12/30 10:45:39;;;;;;;43.97;26.83;;;;;;;-144.47;100.00;61586.06;5034006;28;20086;-87
2021/12/30 10:48:08;;;;;;;51.40;27.77;;;;;;;-144.47;100.00;61586.06;5034968;28;20034;-88
2021/12/30 10:50:34;;;;;;;53.72;27.75;;;;;;;-144.47;100.00;61586.06;5037650;28;20048;-87
2021/12/30 10:52:59;;;;;;;40.42;26.00;;;;;;;-144.47;100.00;61586.06;5034412;28;20449;-86
2021/12/30 10:55:25;;;;;;;47.63;27.50;;;;;;;-144.47;100.00;61586.06;5034810;28;20392;-86